ADDS METAR Data INFO
IDs: Format: Raw Decoded Include TAF

Data at: 1541 UTC 25 Jun 2017

KWVI 251514Z AUTO 00000KT 10SM OVC005 14/14 A3000 RMK AO2 T01390139

KSNS 251453Z 25003KT 10SM OVC007 14/12 A2999 RMK AO2 SLP165 T01390122 53009

KMRY 251535Z 29006KT 2SM BR OVC003 13/13 A3001 RMK AO2 T01330128

KSJC 251453Z 33004KT 10SM FEW008 BKN013 OVC016 17/13 A2999 RMK AO2 SLP154 T01670133 53010

KSFO 251456Z 25007KT 10SM SCT008 BKN010 OVC013 14/12 A3000 RMK AO2 SLP157 T01440117 52010 $

No METAR found for KHAF


Page loaded:  15:41 UTC  |   08:41 AM Pacific  |   09:41 AM Mountain  |   10:41 AM Central  |   11:41 AM Eastern

 

ADVISORIES

FORECASTS

FORECASTS

OBSERVATIONS

USER TOOLS

ABOUT US